CST,Max TemperatureF,Mean TemperatureF,Min TemperatureF,Max Dew PointF,MeanDew PointF,Min DewpointF,Max Humidity, Mean Humidity, Min Humidity, Max Sea Level PressureIn, Mean Sea Level PressureIn, Min Sea Level PressureIn, Max VisibilityMiles, Mean VisibilityMiles, Min VisibilityMiles, Max Wind SpeedMPH, Mean Wind SpeedMPH, Max Gust SpeedMPH,PrecipitationIn, CloudCover, Events, WindDirDegrees
2013-1-1,64,55,46,63,56,44,100,95,87,30.12,30.01,29.92,10,7,1,16,7,23,0.89,8,Rain,349
2013-1-2,45,41,37,45,38,33,100,87,81,30.25,30.18,30.10,10,10,10,15,9,21,0.00,8,Rain,352
2013-1-3,48,41,34,32,27,24,85,64,38,30.40,30.32,30.23,10,10,10,13,6,18,0.00,0,,4
2013-1-4,55,44,34,32,27,22,79,56,28,30.46,30.40,30.35,10,10,10,9,5,,0.00,2,,13
2013-1-5,51,45,39,43,36,32,93,73,50,30.39,30.31,30.23,10,9,4,7,2,,0.06,6,Rain,22
2013-1-6,55,48,42,43,41,37,100,87,59,30.31,30.26,30.22,10,8,2,10,5,,0.23,6,Rain,14
2013-1-7,57,46,35,40,36,33,96,74,40,30.35,30.26,30.19,10,9,7,9,3,,0.00,1,,50
2013-1-8,62,54,45,58,52,38,100,87,71,30.22,30.16,30.09,10,7,2,8,3,,0.66,7,Rain,109
2013-1-9,66,62,57,66,61,57,100,99,94,30.20,30.16,30.10,10,4,1,10,5,17,2.02,8,Rain,96
2013-1-10,69,64,60,68,64,61,100,97,83,30.17,30.09,29.97,10,6,2,23,8,31,1.07,7,Rain-Thunderstorm,142
2013-1-11,69,66,62,68,64,63,100,98,93,30.11,30.05,30.00,10,5,0,10,6,,0.32,8,Fog-Rain,177
2013-1-12,73,70,68,69,67,64,100,89,73,30.04,29.97,29.89,10,8,2,17,10,24,0.01,7,,167
2013-1-13,73,58,44,70,59,42,100,91,83,30.12,29.95,29.83,10,8,0,23,13,37,0.78,8,Fog-Rain-Thunderstorm,218
2013-1-14,43,38,33,43,38,33,100,95,92,30.18,30.13,30.08,10,6,2,17,9,24,0.90,8,Rain-Thunderstorm,17
2013-1-15,41,39,37,41,38,36,100,96,93,30.09,30.04,29.99,10,4,1,10,6,,0.62,8,Rain-Thunderstorm,10
2013-1-16,36,34,33,36,34,33,100,95,92,30.14,30.10,30.02,10,5,2,14,9,20,0.12,8,Rain-Snow,329
2013-1-17,52,42,33,35,32,30,100,82,47,30.44,30.25,30.13,10,8,2,22,12,31,0.01,4,Snow,319
2013-1-18,57,45,33,35,31,23,92,69,27,30.55,30.45,30.40,10,10,6,10,5,,0.00,0,,32
2013-1-19,61,46,30,45,37,29,96,77,50,30.40,30.32,30.24,10,9,5,8,1,,0.00,0,,166
2013-1-20,64,50,35,43,36,30,100,74,28,30.28,30.22,30.14,10,8,1,6,1,,0.00,0,,8
2013-1-21,64,50,36,44,39,35,97,68,40,30.23,30.19,30.14,10,10,10,8,2,,0.00,0,,3
2013-1-22,60,48,37,43,34,26,89,64,39,30.37,30.31,30.24,10,10,8,8,4,,0.00,2,,43
2013-1-23,70,54,39,48,42,38,97,70,35,30.38,30.31,30.26,10,9,5,13,2,,0.00,1,,216
2013-1-24,71,58,46,57,52,45,100,82,57,30.33,30.26,30.21,10,9,4,9,3,,0.00,4,,207
2013-1-25,73,60,48,56,53,48,100,86,48,30.23,30.19,30.11,10,6,0,16,4,23,0.01,0,Fog,196
2013-1-26,71,61,51,61,56,51,100,92,59,30.26,30.21,30.17,10,4,0,9,1,,0.00,6,Fog,152
2013-1-27,72,62,53,58,56,53,100,89,55,30.28,30.23,30.18,10,5,0,15,4,22,0.00,4,Fog,149
2013-1-28,73,65,57,64,60,57,100,89,57,30.26,30.19,30.11,10,8,4,12,7,,0.00,6,,156
2013-1-29,78,71,64,67,65,63,100,86,60,30.11,29.94,29.74,10,9,3,22,11,31,0.01,7,,167
2013-1-30,72,54,34,67,47,29,100,77,40,30.17,29.82,29.66,10,8,2,25,13,44,0.13,6,Rain-Thunderstorm,281
2013-1-31,59,44,30,33,28,21,96,57,24,30.32,30.25,30.17,10,10,10,10,2,,0.00,0,,261